sensor_id;sensor_type;location;lat;lon;timestamp;temperature;humidity
27200;DHT22;14714;48.106;11.546;2024-01-30T00:00:04;-0.60;99.90
27200;DHT22;14714;48.106;11.546;2024-01-30T00:02:32;-0.70;99.90
27200;DHT22;14714;48.106;11.546;2024-01-30T00:04:59;-0.70;99.90
27200;DHT22;14714;48.106;11.546;2024-01-30T00:07:25;-0.70;99.90
27200;DHT22;14714;48.106;11.546;2024-01-30T00:09:52;-0.70;99.90
27200;DHT22;14714;48.106;11.546;2024-01-30T00:12:19;-0.70;99.90
27200;DHT22;14714;48.106;11.546;2024-01-30T00:14:46;-0.70;99.90
27200;DHT22;14714;48.106;11.546;2024-01-30T00:17:14;-0.70;99.90
27200;DHT22;14714;48.106;11.546;2024-01-30T00:19:41;-0.80;99.90
27200;DHT22;14714;48.106;11.546;2024-01-30T00:22:08;-0.80;99.90
27200;DHT22;14714;48.106;11.546;2024-01-30T00:24:35;-0.80;99.90
27200;DHT22;14714;48.106;11.546;2024-01-30T00:27:02;-0.80;99.90
27200;DHT22;14714;48.106;11.546;2024-01-30T00:29:29;-0.80;99.90
27200;DHT22;14714;48.106;11.546;2024-01-30T00:32:00;-0.80;99.90
27200;DHT22;14714;48.106;11.546;2024-01-30T00:34:27;-0.90;99.90
27200;DHT22;14714;48.106;11.546;2024-01-30T00:36:54;-0.80;99.90
27200;DHT22;14714;48.106;11.546;2024-01-30T00:39:21;-0.80;99.90
27200;DHT22;14714;48.106;11.546;2024-01-30T00:41:47;-0.80;99.90
27200;DHT22;14714;48.106;11.546;2024-01-30T00:44:14;-0.80;99.90
27200;DHT22;14714;48.106;11.546;2024-01-30T00:46:41;-0.80;99.90
27200;DHT22;14714;48.106;11.546;2024-01-30T00:49:08;-0.90;99.90
27200;DHT22;14714;48.106;11.546;2024-01-30T00:51:35;-0.90;99.90
27200;DHT22;14714;48.106;11.546;2024-01-30T00:54:02;-0.90;99.90
27200;DHT22;14714;48.106;11.546;2024-01-30T00:56:29;-0.90;99.90
27200;DHT22;14714;48.106;11.546;2024-01-30T00:58:56;-1.00;99.90
27200;DHT22;14714;48.106;11.546;2024-01-30T01:01:23;-1.00;99.90
27200;DHT22;14714;48.106;11.546;2024-01-30T01:03:50;-1.00;99.90
27200;DHT22;14714;48.106;11.546;2024-01-30T01:06:17;-1.00;99.90
27200;DHT22;14714;48.106;11.546;2024-01-30T01:08:44;-1.00;99.90
27200;DHT22;14714;48.106;11.546;2024-01-30T01:11:11;-1.00;99.90
27200;DHT22;14714;48.106;11.546;2024-01-30T01:13:38;-1.00;99.90
27200;DHT22;14714;48.106;11.546;2024-01-30T01:16:05;-1.00;99.90
27200;DHT22;14714;48.106;11.546;2024-01-30T01:18:32;-1.10;99.90
27200;DHT22;14714;48.106;11.546;2024-01-30T01:20:59;-1.10;99.90
27200;DHT22;14714;48.106;11.546;2024-01-30T01:23:26;-1.10;99.90
27200;DHT22;14714;48.106;11.546;2024-01-30T01:25:53;-1.10;99.90
27200;DHT22;14714;48.106;11.546;2024-01-30T01:28:24;-1.10;99.90
27200;DHT22;14714;48.106;11.546;2024-01-30T01:30:51;-1.00;99.90
27200;DHT22;14714;48.106;11.546;2024-01-30T01:33:18;-1.10;99.90
27200;DHT22;14714;48.106;11.546;2024-01-30T01:35:45;-1.10;99.90
27200;DHT22;14714;48.106;11.546;2024-01-30T01:38:12;-1.10;99.90
27200;DHT22;14714;48.106;11.546;2024-01-30T01:40:38;-1.10;99.90
27200;DHT22;14714;48.106;11.546;2024-01-30T01:43:06;-1.10;99.90
27200;DHT22;14714;48.106;11.546;2024-01-30T01:45:33;-1.10;99.90
27200;DHT22;14714;48.106;11.546;2024-01-30T01:48:00;-1.10;99.90
27200;DHT22;14714;48.106;11.546;2024-01-30T01:50:27;-1.10;99.90
27200;DHT22;14714;48.106;11.546;2024-01-30T01:52:55;-1.10;99.90
27200;DHT22;14714;48.106;11.546;2024-01-30T01:55:23;-1.10;99.90
27200;DHT22;14714;48.106;11.546;2024-01-30T01:57:53;-1.10;99.90
27200;DHT22;14714;48.106;11.546;2024-01-30T02:00:20;-1.10;99.90
27200;DHT22;14714;48.106;11.546;2024-01-30T02:02:47;-1.10;99.90
27200;DHT22;14714;48.106;11.546;2024-01-30T02:05:15;-1.20;99.90
27200;DHT22;14714;48.106;11.546;2024-01-30T02:07:44;-1.10;99.90
27200;DHT22;14714;48.106;11.546;2024-01-30T02:10:11;-1.10;99.90
27200;DHT22;14714;48.106;11.546;2024-01-30T02:12:40;-1.10;99.90
27200;DHT22;14714;48.106;11.546;2024-01-30T02:15:07;-1.10;99.90
27200;DHT22;14714;48.106;11.546;2024-01-30T02:17:34;-1.20;99.90
27200;DHT22;14714;48.106;11.546;2024-01-30T02:20:01;-1.20;99.90
27200;DHT22;14714;48.106;11.546;2024-01-30T02:22:30;-1.20;99.90
27200;DHT22;14714;48.106;11.546;2024-01-30T02:24:58;-1.20;99.90
27200;DHT22;14714;48.106;11.546;2024-01-30T02:27:25;-1.20;99.90
27200;DHT22;14714;48.106;11.546;2024-01-30T02:29:52;-1.20;99.90
27200;DHT22;14714;48.106;11.546;2024-01-30T02:32:18;-1.20;99.90
27200;DHT22;14714;48.106;11.546;2024-01-30T02:34:45;-1.20;99.90
27200;DHT22;14714;48.106;11.546;2024-01-30T02:37:12;-1.20;99.90
27200;DHT22;14714;48.106;11.546;2024-01-30T02:39:39;-1.30;99.90
27200;DHT22;14714;48.106;11.546;2024-01-30T02:42:06;-1.30;99.90
27200;DHT22;14714;48.106;11.546;2024-01-30T02:44:33;-1.30;99.90
27200;DHT22;14714;48.106;11.546;2024-01-30T02:46:59;-1.30;99.90
27200;DHT22;14714;48.106;11.546;2024-01-30T02:49:26;-1.30;99.90
27200;DHT22;14714;48.106;11.546;2024-01-30T02:51:54;-1.30;99.90
27200;DHT22;14714;48.106;11.546;2024-01-30T02:54:21;-1.30;99.90
27200;DHT22;14714;48.106;11.546;2024-01-30T02:56:48;-1.30;99.90
27200;DHT22;14714;48.106;11.546;2024-01-30T02:59:15;-1.30;99.90
27200;DHT22;14714;48.106;11.546;2024-01-30T03:01:43;-1.30;99.90
27200;DHT22;14714;48.106;11.546;2024-01-30T03:04:11;-1.30;99.90
27200;DHT22;14714;48.106;11.546;2024-01-30T03:06:38;-1.30;99.90
27200;DHT22;14714;48.106;11.546;2024-01-30T03:09:05;-1.30;99.90
27200;DHT22;14714;48.106;11.546;2024-01-30T03:11:32;-1.30;99.90
27200;DHT22;14714;48.106;11.546;2024-01-30T03:13:58;-1.30;99.90
27200;DHT22;14714;48.106;11.546;2024-01-30T03:16:25;-1.30;99.90
27200;DHT22;14714;48.106;11.546;2024-01-30T03:18:52;-1.30;99.90
27200;DHT22;14714;48.106;11.546;2024-01-30T03:21:19;-1.30;99.90
27200;DHT22;14714;48.106;11.546;2024-01-30T03:23:46;-1.30;99.90
27200;DHT22;14714;48.106;11.546;2024-01-30T03:26:13;-1.30;99.90
27200;DHT22;14714;48.106;11.546;2024-01-30T03:28:41;-1.30;99.90
27200;DHT22;14714;48.106;11.546;2024-01-30T03:31:08;-1.30;99.90
27200;DHT22;14714;48.106;11.546;2024-01-30T03:33:36;-1.30;99.90
27200;DHT22;14714;48.106;11.546;2024-01-30T03:36:04;-1.30;99.90
27200;DHT22;14714;48.106;11.546;2024-01-30T03:38:31;-1.30;99.90
27200;DHT22;14714;48.106;11.546;2024-01-30T03:41:01;-1.30;99.90
27200;DHT22;14714;48.106;11.546;2024-01-30T03:43:28;-1.30;99.90
27200;DHT22;14714;48.106;11.546;2024-01-30T03:45:54;-1.30;99.90
27200;DHT22;14714;48.106;11.546;2024-01-30T03:48:21;-1.30;99.90
27200;DHT22;14714;48.106;11.546;2024-01-30T03:50:48;-1.30;99.90
27200;DHT22;14714;48.106;11.546;2024-01-30T03:53:15;-1.30;99.90
27200;DHT22;14714;48.106;11.546;2024-01-30T03:55:42;-1.30;99.90
27200;DHT22;14714;48.106;11.546;2024-01-30T03:58:09;-1.30;99.90
27200;DHT22;14714;48.106;11.546;2024-01-30T04:00:36;-1.30;99.90
27200;DHT22;14714;48.106;11.546;2024-01-30T04:03:03;-1.30;99.90
27200;DHT22;14714;48.106;11.546;2024-01-30T04:05:30;-1.30;99.90
27200;DHT22;14714;48.106;11.546;2024-01-30T04:07:57;-1.30;99.90
27200;DHT22;14714;48.106;11.546;2024-01-30T04:10:24;-1.30;99.90
27200;DHT22;14714;48.106;11.546;2024-01-30T04:12:51;-1.30;99.90
27200;DHT22;14714;48.106;11.546;2024-01-30T04:15:18;-1.30;99.90
27200;DHT22;14714;48.106;11.546;2024-01-30T04:17:45;-1.30;99.90
27200;DHT22;14714;48.106;11.546;2024-01-30T04:20:16;-1.30;99.90
27200;DHT22;14714;48.106;11.546;2024-01-30T04:22:46;-1.40;99.90
27200;DHT22;14714;48.106;11.546;2024-01-30T04:25:13;-1.30;99.90
27200;DHT22;14714;48.106;11.546;2024-01-30T04:27:41;-1.30;99.90
27200;DHT22;14714;48.106;11.546;2024-01-30T04:30:08;-1.40;99.90
27200;DHT22;14714;48.106;11.546;2024-01-30T04:32:37;-1.40;99.90
27200;DHT22;14714;48.106;11.546;2024-01-30T04:35:04;-1.40;99.90
27200;DHT22;14714;48.106;11.546;2024-01-30T04:37:37;-1.40;99.90
27200;DHT22;14714;48.106;11.546;2024-01-30T04:40:04;-1.30;99.90
27200;DHT22;14714;48.106;11.546;2024-01-30T04:42:32;-1.40;99.90
27200;DHT22;14714;48.106;11.546;2024-01-30T04:44:59;-1.30;99.90
27200;DHT22;14714;48.106;11.546;2024-01-30T04:47:25;-1.30;99.90
27200;DHT22;14714;48.106;11.546;2024-01-30T04:49:53;-1.30;99.90
27200;DHT22;14714;48.106;11.546;2024-01-30T04:52:20;-1.40;99.90
27200;DHT22;14714;48.106;11.546;2024-01-30T04:54:47;-1.40;99.90
27200;DHT22;14714;48.106;11.546;2024-01-30T04:57:14;-1.40;99.90
27200;DHT22;14714;48.106;11.546;2024-01-30T04:59:41;-1.40;99.90
27200;DHT22;14714;48.106;11.546;2024-01-30T05:02:08;-1.40;99.90
27200;DHT22;14714;48.106;11.546;2024-01-30T05:04:35;-1.40;99.90
27200;DHT22;14714;48.106;11.546;2024-01-30T05:07:02;-1.40;99.90
27200;DHT22;14714;48.106;11.546;2024-01-30T05:09:29;-1.40;99.90
27200;DHT22;14714;48.106;11.546;2024-01-30T05:11:56;-1.30;99.90
27200;DHT22;14714;48.106;11.546;2024-01-30T05:14:23;-1.30;99.90
27200;DHT22;14714;48.106;11.546;2024-01-30T05:16:50;-1.40;99.90
27200;DHT22;14714;48.106;11.546;2024-01-30T05:19:16;-1.40;99.90
27200;DHT22;14714;48.106;11.546;2024-01-30T05:21:44;-1.30;99.90
27200;DHT22;14714;48.106;11.546;2024-01-30T05:24:11;-1.40;99.90
27200;DHT22;14714;48.106;11.546;2024-01-30T05:26:38;-1.40;99.90
27200;DHT22;14714;48.106;11.546;2024-01-30T05:29:06;-1.40;99.90
27200;DHT22;14714;48.106;11.546;2024-01-30T05:31:33;-1.30;99.90
27200;DHT22;14714;48.106;11.546;2024-01-30T05:34:01;-1.40;99.90
27200;DHT22;14714;48.106;11.546;2024-01-30T05:36:28;-1.40;99.90
27200;DHT22;14714;48.106;11.546;2024-01-30T05:38:56;-1.40;99.90
27200;DHT22;14714;48.106;11.546;2024-01-30T05:41:22;-1.30;99.90
27200;DHT22;14714;48.106;11.546;2024-01-30T05:43:49;-1.30;99.90
27200;DHT22;14714;48.106;11.546;2024-01-30T05:46:16;-1.30;99.90
27200;DHT22;14714;48.106;11.546;2024-01-30T05:48:44;-1.30;99.90
27200;DHT22;14714;48.106;11.546;2024-01-30T05:51:10;-1.40;99.90
27200;DHT22;14714;48.106;11.546;2024-01-30T05:53:38;-1.40;99.90
27200;DHT22;14714;48.106;11.546;2024-01-30T05:56:05;-1.40;99.90
27200;DHT22;14714;48.106;11.546;2024-01-30T05:58:32;-1.30;99.90
27200;DHT22;14714;48.106;11.546;2024-01-30T06:00:59;-1.30;99.90
27200;DHT22;14714;48.106;11.546;2024-01-30T06:03:26;-1.30;99.90
27200;DHT22;14714;48.106;11.546;2024-01-30T06:05:53;-1.30;99.90
27200;DHT22;14714;48.106;11.546;2024-01-30T06:08:19;-1.30;99.90
27200;DHT22;14714;48.106;11.546;2024-01-30T06:10:46;-1.30;99.90
27200;DHT22;14714;48.106;11.546;2024-01-30T06:13:14;-1.30;99.90
27200;DHT22;14714;48.106;11.546;2024-01-30T06:15:41;-1.30;99.90
27200;DHT22;14714;48.106;11.546;2024-01-30T06:18:08;-1.30;99.90
27200;DHT22;14714;48.106;11.546;2024-01-30T06:20:35;-1.30;99.90
27200;DHT22;14714;48.106;11.546;2024-01-30T06:23:02;-1.30;99.90
27200;DHT22;14714;48.106;11.546;2024-01-30T06:25:29;-1.30;99.90
27200;DHT22;14714;48.106;11.546;2024-01-30T06:27:56;-1.30;99.90
27200;DHT22;14714;48.106;11.546;2024-01-30T06:30:23;-1.30;99.90
27200;DHT22;14714;48.106;11.546;2024-01-30T06:32:49;-1.30;99.90
27200;DHT22;14714;48.106;11.546;2024-01-30T06:35:17;-1.30;99.90
27200;DHT22;14714;48.106;11.546;2024-01-30T06:37:44;-1.30;99.90
27200;DHT22;14714;48.106;11.546;2024-01-30T06:40:11;-1.30;99.90
27200;DHT22;14714;48.106;11.546;2024-01-30T06:42:38;-1.30;99.90
27200;DHT22;14714;48.106;11.546;2024-01-30T06:45:06;-1.30;99.90
27200;DHT22;14714;48.106;11.546;2024-01-30T06:47:33;-1.30;99.90
27200;DHT22;14714;48.106;11.546;2024-01-30T06:50:00;-1.30;99.90
27200;DHT22;14714;48.106;11.546;2024-01-30T06:52:28;-1.30;99.90
27200;DHT22;14714;48.106;11.546;2024-01-30T06:54:55;-1.30;99.90
27200;DHT22;14714;48.106;11.546;2024-01-30T06:57:22;-1.20;99.90
27200;DHT22;14714;48.106;11.546;2024-01-30T06:59:49;-1.20;99.90
27200;DHT22;14714;48.106;11.546;2024-01-30T07:02:16;-1.20;99.90
27200;DHT22;14714;48.106;11.546;2024-01-30T07:04:43;-1.20;99.90
27200;DHT22;14714;48.106;11.546;2024-01-30T07:07:13;-1.10;99.90
27200;DHT22;14714;48.106;11.546;2024-01-30T07:09:42;-1.10;99.90
27200;DHT22;14714;48.106;11.546;2024-01-30T07:12:09;-1.10;99.90
27200;DHT22;14714;48.106;11.546;2024-01-30T07:14:36;-1.10;99.90
27200;DHT22;14714;48.106;11.546;2024-01-30T07:17:03;-1.10;99.90
27200;DHT22;14714;48.106;11.546;2024-01-30T07:19:30;-1.00;99.90
27200;DHT22;14714;48.106;11.546;2024-01-30T07:21:57;-1.00;99.90
27200;DHT22;14714;48.106;11.546;2024-01-30T07:24:24;-0.90;99.90
27200;DHT22;14714;48.106;11.546;2024-01-30T07:26:51;-0.70;99.90
27200;DHT22;14714;48.106;11.546;2024-01-30T07:29:18;-0.60;99.90
27200;DHT22;14714;48.106;11.546;2024-01-30T07:31:45;-0.50;99.90
27200;DHT22;14714;48.106;11.546;2024-01-30T07:34:11;-0.30;99.90
27200;DHT22;14714;48.106;11.546;2024-01-30T07:36:39;-0.10;99.90
27200;DHT22;14714;48.106;11.546;2024-01-30T07:39:05;0.10;99.90
27200;DHT22;14714;48.106;11.546;2024-01-30T07:41:32;0.40;99.90
27200;DHT22;14714;48.106;11.546;2024-01-30T07:44:00;1.10;99.90
27200;DHT22;14714;48.106;11.546;2024-01-30T07:46:27;2.20;99.90
27200;DHT22;14714;48.106;11.546;2024-01-30T07:48:53;3.20;99.90
27200;DHT22;14714;48.106;11.546;2024-01-30T07:51:22;4.30;99.90
27200;DHT22;14714;48.106;11.546;2024-01-30T07:53:49;5.50;99.90
27200;DHT22;14714;48.106;11.546;2024-01-30T07:56:16;6.60;99.90
27200;DHT22;14714;48.106;11.546;2024-01-30T07:58:43;7.50;99.90
27200;DHT22;14714;48.106;11.546;2024-01-30T08:01:11;8.10;99.90
27200;DHT22;14714;48.106;11.546;2024-01-30T08:03:38;9.30;99.90
27200;DHT22;14714;48.106;11.546;2024-01-30T08:06:07;10.60;99.90
27200;DHT22;14714;48.106;11.546;2024-01-30T08:08:34;11.70;99.90
27200;DHT22;14714;48.106;11.546;2024-01-30T08:11:01;12.60;97.10
27200;DHT22;14714;48.106;11.546;2024-01-30T08:13:28;13.20;91.80
27200;DHT22;14714;48.106;11.546;2024-01-30T08:15:55;12.80;87.90
27200;DHT22;14714;48.106;11.546;2024-01-30T08:18:22;12.90;89.30
27200;DHT22;14714;48.106;11.546;2024-01-30T08:20:49;13.30;85.50
27200;DHT22;14714;48.106;11.546;2024-01-30T08:23:16;13.60;80.40
27200;DHT22;14714;48.106;11.546;2024-01-30T08:25:42;13.00;81.50
27200;DHT22;14714;48.106;11.546;2024-01-30T08:28:09;13.00;84.10
27200;DHT22;14714;48.106;11.546;2024-01-30T08:30:36;13.90;81.10
27200;DHT22;14714;48.106;11.546;2024-01-30T08:33:05;14.40;76.20
27200;DHT22;14714;48.106;11.546;2024-01-30T08:35:32;14.50;73.30
27200;DHT22;14714;48.106;11.546;2024-01-30T08:38:00;14.00;74.00
27200;DHT22;14714;48.106;11.546;2024-01-30T08:40:27;13.70;76.70
27200;DHT22;14714;48.106;11.546;2024-01-30T08:42:55;13.80;77.00
27200;DHT22;14714;48.106;11.546;2024-01-30T08:45:24;14.10;75.50
27200;DHT22;14714;48.106;11.546;2024-01-30T08:47:51;14.30;74.20
27200;DHT22;14714;48.106;11.546;2024-01-30T08:50:18;14.40;73.00
27200;DHT22;14714;48.106;11.546;2024-01-30T08:52:45;14.40;73.10
27200;DHT22;14714;48.106;11.546;2024-01-30T08:55:13;14.40;73.60
27200;DHT22;14714;48.106;11.546;2024-01-30T08:57:40;14.80;73.90
27200;DHT22;14714;48.106;11.546;2024-01-30T09:00:07;15.20;73.50
27200;DHT22;14714;48.106;11.546;2024-01-30T09:02:36;15.90;70.40
27200;DHT22;14714;48.106;11.546;2024-01-30T09:05:03;16.90;69.30
27200;DHT22;14714;48.106;11.546;2024-01-30T09:07:30;18.00;64.90
27200;DHT22;14714;48.106;11.546;2024-01-30T09:09:57;19.20;61.20
27200;DHT22;14714;48.106;11.546;2024-01-30T09:12:24;20.50;57.60
27200;DHT22;14714;48.106;11.546;2024-01-30T09:14:51;21.80;52.50
27200;DHT22;14714;48.106;11.546;2024-01-30T09:17:18;22.90;49.00
27200;DHT22;14714;48.106;11.546;2024-01-30T09:19:45;23.80;43.30
27200;DHT22;14714;48.106;11.546;2024-01-30T09:22:13;24.50;42.90
27200;DHT22;14714;48.106;11.546;2024-01-30T09:24:40;24.90;40.20
27200;DHT22;14714;48.106;11.546;2024-01-30T09:27:07;25.10;40.20
27200;DHT22;14714;48.106;11.546;2024-01-30T09:29:34;25.10;37.00
27200;DHT22;14714;48.106;11.546;2024-01-30T09:32:04;24.80;37.10
27200;DHT22;14714;48.106;11.546;2024-01-30T09:34:32;24.50;38.90
27200;DHT22;14714;48.106;11.546;2024-01-30T09:36:59;24.20;37.70
27200;DHT22;14714;48.106;11.546;2024-01-30T09:39:27;24.00;38.30
27200;DHT22;14714;48.106;11.546;2024-01-30T09:42:33;23.80;37.00
27200;DHT22;14714;48.106;11.546;2024-01-30T09:45:02;23.60;36.20
27200;DHT22;14714;48.106;11.546;2024-01-30T09:47:41;23.10;36.90
27200;DHT22;14714;48.106;11.546;2024-01-30T09:50:12;22.80;37.50
27200;DHT22;14714;48.106;11.546;2024-01-30T09:52:39;22.60;38.50
27200;DHT22;14714;48.106;11.546;2024-01-30T09:55:07;22.50;38.20
27200;DHT22;14714;48.106;11.546;2024-01-30T09:57:34;22.40;38.30
27200;DHT22;14714;48.106;11.546;2024-01-30T10:00:06;22.20;38.60
27200;DHT22;14714;48.106;11.546;2024-01-30T10:02:35;21.90;37.50
27200;DHT22;14714;48.106;11.546;2024-01-30T10:05:03;21.50;38.00
27200;DHT22;14714;48.106;11.546;2024-01-30T10:07:30;20.90;39.40
27200;DHT22;14714;48.106;11.546;2024-01-30T10:09:57;20.40;41.10
27200;DHT22;14714;48.106;11.546;2024-01-30T10:12:29;20.00;41.40
27200;DHT22;14714;48.106;11.546;2024-01-30T10:14:56;19.90;40.90
27200;DHT22;14714;48.106;11.546;2024-01-30T10:17:25;19.90;41.10
27200;DHT22;14714;48.106;11.546;2024-01-30T10:19:59;19.80;40.10
27200;DHT22;14714;48.106;11.546;2024-01-30T10:22:27;19.70;39.90
27200;DHT22;14714;48.106;11.546;2024-01-30T10:24:54;19.20;40.80
27200;DHT22;14714;48.106;11.546;2024-01-30T10:27:28;18.70;42.20
27200;DHT22;14714;48.106;11.546;2024-01-30T10:29:56;18.50;43.00
27200;DHT22;14714;48.106;11.546;2024-01-30T10:32:23;18.30;42.20
27200;DHT22;14714;48.106;11.546;2024-01-30T10:34:50;18.10;42.70
27200;DHT22;14714;48.106;11.546;2024-01-30T10:37:19;17.90;44.00
27200;DHT22;14714;48.106;11.546;2024-01-30T10:39:48;17.70;45.10
27200;DHT22;14714;48.106;11.546;2024-01-30T10:42:18;17.40;44.80
27200;DHT22;14714;48.106;11.546;2024-01-30T10:45:10;17.10;46.10
27200;DHT22;14714;48.106;11.546;2024-01-30T10:47:49;17.10;46.00
27200;DHT22;14714;48.106;11.546;2024-01-30T10:50:17;17.10;46.10
27200;DHT22;14714;48.106;11.546;2024-01-30T10:52:45;17.30;45.60
27200;DHT22;14714;48.106;11.546;2024-01-30T10:55:12;17.50;45.30
27200;DHT22;14714;48.106;11.546;2024-01-30T10:57:40;17.70;44.20
27200;DHT22;14714;48.106;11.546;2024-01-30T11:00:10;17.70;43.60
27200;DHT22;14714;48.106;11.546;2024-01-30T11:02:42;17.90;44.20
27200;DHT22;14714;48.106;11.546;2024-01-30T11:05:10;17.90;42.90
27200;DHT22;14714;48.106;11.546;2024-01-30T11:07:39;17.70;43.30
27200;DHT22;14714;48.106;11.546;2024-01-30T11:10:12;17.70;44.30
27200;DHT22;14714;48.106;11.546;2024-01-30T11:12:42;17.70;44.50
27200;DHT22;14714;48.106;11.546;2024-01-30T11:15:16;17.90;44.70
27200;DHT22;14714;48.106;11.546;2024-01-30T11:17:44;18.10;44.50
27200;DHT22;14714;48.106;11.546;2024-01-30T11:20:14;18.40;42.60
27200;DHT22;14714;48.106;11.546;2024-01-30T11:22:50;18.60;42.80
27200;DHT22;14714;48.106;11.546;2024-01-30T11:25:19;18.80;41.20
27200;DHT22;14714;48.106;11.546;2024-01-30T11:27:47;18.90;41.60
27200;DHT22;14714;48.106;11.546;2024-01-30T11:30:26;19.00;40.90
27200;DHT22;14714;48.106;11.546;2024-01-30T11:35:35;18.80;40.40
27200;DHT22;14714;48.106;11.546;2024-01-30T11:38:03;18.80;42.30
27200;DHT22;14714;48.106;11.546;2024-01-30T11:40:31;18.70;41.60
27200;DHT22;14714;48.106;11.546;2024-01-30T11:43:01;18.50;41.30
27200;DHT22;14714;48.106;11.546;2024-01-30T11:45:29;18.30;42.20
27200;DHT22;14714;48.106;11.546;2024-01-30T11:47:56;18.30;43.00
27200;DHT22;14714;48.106;11.546;2024-01-30T11:50:25;18.50;42.10
27200;DHT22;14714;48.106;11.546;2024-01-30T11:52:51;18.70;41.80
27200;DHT22;14714;48.106;11.546;2024-01-30T11:55:19;18.80;42.20
27200;DHT22;14714;48.106;11.546;2024-01-30T11:57:46;18.90;41.60
27200;DHT22;14714;48.106;11.546;2024-01-30T12:00:18;18.90;41.10
27200;DHT22;14714;48.106;11.546;2024-01-30T12:02:53;18.80;40.50
27200;DHT22;14714;48.106;11.546;2024-01-30T12:05:24;18.70;41.70
27200;DHT22;14714;48.106;11.546;2024-01-30T12:07:51;18.50;40.90
27200;DHT22;14714;48.106;11.546;2024-01-30T12:10:18;18.40;42.80
27200;DHT22;14714;48.106;11.546;2024-01-30T12:12:47;18.40;42.90
27200;DHT22;14714;48.106;11.546;2024-01-30T12:15:14;18.50;42.20
27200;DHT22;14714;48.106;11.546;2024-01-30T12:17:42;18.40;41.30
27200;DHT22;14714;48.106;11.546;2024-01-30T12:20:18;18.20;41.80
27200;DHT22;14714;48.106;11.546;2024-01-30T12:22:48;17.90;41.40
27200;DHT22;14714;48.106;11.546;2024-01-30T12:25:17;17.70;41.70
27200;DHT22;14714;48.106;11.546;2024-01-30T12:27:48;17.50;42.60
27200;DHT22;14714;48.106;11.546;2024-01-30T12:30:20;17.20;43.70
27200;DHT22;14714;48.106;11.546;2024-01-30T12:32:50;17.00;44.40
27200;DHT22;14714;48.106;11.546;2024-01-30T12:35:19;16.60;44.70
27200;DHT22;14714;48.106;11.546;2024-01-30T12:37:48;16.40;44.30
27200;DHT22;14714;48.106;11.546;2024-01-30T12:40:15;16.10;44.80
27200;DHT22;14714;48.106;11.546;2024-01-30T12:42:43;16.00;45.20
27200;DHT22;14714;48.106;11.546;2024-01-30T12:45:15;15.70;45.60
27200;DHT22;14714;48.106;11.546;2024-01-30T12:47:42;15.60;46.50
27200;DHT22;14714;48.106;11.546;2024-01-30T12:50:09;15.50;47.20
27200;DHT22;14714;48.106;11.546;2024-01-30T12:52:37;15.40;47.20
27200;DHT22;14714;48.106;11.546;2024-01-30T12:55:04;15.30;47.60
27200;DHT22;14714;48.106;11.546;2024-01-30T12:57:31;15.30;46.10
27200;DHT22;14714;48.106;11.546;2024-01-30T12:59:58;15.30;45.80
27200;DHT22;14714;48.106;11.546;2024-01-30T13:02:25;15.30;47.40
27200;DHT22;14714;48.106;11.546;2024-01-30T13:04:54;15.20;46.60
27200;DHT22;14714;48.106;11.546;2024-01-30T13:07:21;15.20;46.00
27200;DHT22;14714;48.106;11.546;2024-01-30T13:09:48;15.20;45.90
27200;DHT22;14714;48.106;11.546;2024-01-30T13:12:15;15.20;46.50
27200;DHT22;14714;48.106;11.546;2024-01-30T13:14:41;15.30;47.00
27200;DHT22;14714;48.106;11.546;2024-01-30T13:17:09;15.30;46.50
27200;DHT22;14714;48.106;11.546;2024-01-30T13:19:36;15.40;45.40
27200;DHT22;14714;48.106;11.546;2024-01-30T13:22:03;15.30;45.70
27200;DHT22;14714;48.106;11.546;2024-01-30T13:24:30;15.30;45.50
27200;DHT22;14714;48.106;11.546;2024-01-30T13:26:57;15.30;45.40
27200;DHT22;14714;48.106;11.546;2024-01-30T13:29:24;15.20;46.00
27200;DHT22;14714;48.106;11.546;2024-01-30T13:31:51;15.20;46.60
27200;DHT22;14714;48.106;11.546;2024-01-30T13:34:18;15.00;47.20
27200;DHT22;14714;48.106;11.546;2024-01-30T13:36:45;14.90;46.90
27200;DHT22;14714;48.106;11.546;2024-01-30T13:39:12;14.90;46.70
27200;DHT22;14714;48.106;11.546;2024-01-30T13:41:40;14.80;47.70
27200;DHT22;14714;48.106;11.546;2024-01-30T13:44:08;14.70;48.10
27200;DHT22;14714;48.106;11.546;2024-01-30T13:46:36;14.60;47.90
27200;DHT22;14714;48.106;11.546;2024-01-30T13:49:03;14.50;48.60
27200;DHT22;14714;48.106;11.546;2024-01-30T13:51:30;14.50;47.50
27200;DHT22;14714;48.106;11.546;2024-01-30T13:53:56;14.40;47.80
27200;DHT22;14714;48.106;11.546;2024-01-30T13:56:23;14.30;47.90
27200;DHT22;14714;48.106;11.546;2024-01-30T13:58:51;14.20;49.10
27200;DHT22;14714;48.106;11.546;2024-01-30T14:01:19;14.10;48.60
27200;DHT22;14714;48.106;11.546;2024-01-30T14:03:46;14.00;48.10
27200;DHT22;14714;48.106;11.546;2024-01-30T14:06:13;13.90;48.50
27200;DHT22;14714;48.106;11.546;2024-01-30T14:08:40;13.80;48.20
27200;DHT22;14714;48.106;11.546;2024-01-30T14:11:12;13.80;48.50
27200;DHT22;14714;48.106;11.546;2024-01-30T14:13:38;13.70;48.80
27200;DHT22;14714;48.106;11.546;2024-01-30T14:16:06;13.60;49.40
27200;DHT22;14714;48.106;11.546;2024-01-30T14:18:34;13.50;49.90
27200;DHT22;14714;48.106;11.546;2024-01-30T14:21:00;13.40;50.00
27200;DHT22;14714;48.106;11.546;2024-01-30T14:23:27;13.30;51.30
27200;DHT22;14714;48.106;11.546;2024-01-30T14:25:54;13.20;51.20
27200;DHT22;14714;48.106;11.546;2024-01-30T14:28:21;13.10;52.00
27200;DHT22;14714;48.106;11.546;2024-01-30T14:30:48;13.00;52.00
27200;DHT22;14714;48.106;11.546;2024-01-30T14:33:15;12.90;52.20
27200;DHT22;14714;48.106;11.546;2024-01-30T14:35:42;12.80;52.60
27200;DHT22;14714;48.106;11.546;2024-01-30T14:38:09;12.80;53.00
27200;DHT22;14714;48.106;11.546;2024-01-30T14:40:36;12.70;54.00
27200;DHT22;14714;48.106;11.546;2024-01-30T14:43:03;12.60;54.00
27200;DHT22;14714;48.106;11.546;2024-01-30T14:45:30;12.60;54.00
27200;DHT22;14714;48.106;11.546;2024-01-30T14:48:00;12.50;54.80
27200;DHT22;14714;48.106;11.546;2024-01-30T14:50:27;12.40;55.30
27200;DHT22;14714;48.106;11.546;2024-01-30T14:52:55;12.40;55.40
27200;DHT22;14714;48.106;11.546;2024-01-30T14:55:22;12.30;55.50
27200;DHT22;14714;48.106;11.546;2024-01-30T14:57:49;12.30;55.90
27200;DHT22;14714;48.106;11.546;2024-01-30T15:00:16;12.30;56.20
27200;DHT22;14714;48.106;11.546;2024-01-30T15:02:43;12.20;56.30
27200;DHT22;14714;48.106;11.546;2024-01-30T15:05:11;12.10;57.00
27200;DHT22;14714;48.106;11.546;2024-01-30T15:07:39;12.10;57.20
27200;DHT22;14714;48.106;11.546;2024-01-30T15:10:07;12.00;56.90
27200;DHT22;14714;48.106;11.546;2024-01-30T15:12:36;12.00;56.60
27200;DHT22;14714;48.106;11.546;2024-01-30T15:15:04;11.90;56.70
27200;DHT22;14714;48.106;11.546;2024-01-30T15:17:31;11.90;56.80
27200;DHT22;14714;48.106;11.546;2024-01-30T15:19:58;11.80;57.10
27200;DHT22;14714;48.106;11.546;2024-01-30T15:22:27;11.70;57.40